sensor_id;sensor_type;location;lat;lon;timestamp;pressure;altitude;pressure_sealevel;temperature;humidity
44697;BME280;57264;47.480;19.354;2023-03-20T00:03:44;99187.59;;;8.46;51.07
44697;BME280;57264;47.480;19.354;2023-03-20T00:06:21;99191.81;;;8.47;51.08
44697;BME280;57264;47.480;19.354;2023-03-20T00:08:50;99181.34;;;8.47;50.92
44697;BME280;57264;47.480;19.354;2023-03-20T00:11:35;99182.63;;;8.58;50.46
44697;BME280;57264;47.480;19.354;2023-03-20T00:16:35;99186.22;;;8.57;50.59
44697;BME280;57264;47.480;19.354;2023-03-20T00:19:02;99189.84;;;8.56;50.76
44697;BME280;57264;47.480;19.354;2023-03-20T00:21:27;99180.75;;;8.45;50.75
44697;BME280;57264;47.480;19.354;2023-03-20T00:23:53;99178.69;;;8.40;50.90
44697;BME280;57264;47.480;19.354;2023-03-20T00:26:27;99183.34;;;8.38;51.08
44697;BME280;57264;47.480;19.354;2023-03-20T00:28:55;99184.03;;;8.26;51.52
44697;BME280;57264;47.480;19.354;2023-03-20T00:31:38;99178.56;;;8.21;51.46
44697;BME280;57264;47.480;19.354;2023-03-20T00:34:11;99173.88;;;8.10;51.74
44697;BME280;57264;47.480;19.354;2023-03-20T00:36:38;99175.25;;;8.06;51.91
44697;BME280;57264;47.480;19.354;2023-03-20T00:39:03;99181.22;;;7.99;52.26
44697;BME280;57264;47.480;19.354;2023-03-20T00:41:44;99180.25;;;8.07;51.63
44697;BME280;57264;47.480;19.354;2023-03-20T00:44:28;99168.97;;;8.00;52.34
44697;BME280;57264;47.480;19.354;2023-03-20T00:46:58;99166.72;;;7.97;52.19
44697;BME280;57264;47.480;19.354;2023-03-20T00:49:27;99157.38;;;8.09;52.12
44697;BME280;57264;47.480;19.354;2023-03-20T00:51:54;99157.94;;;8.05;51.87
44697;BME280;57264;47.480;19.354;2023-03-20T00:54:19;99167.16;;;8.00;52.58
44697;BME280;57264;47.480;19.354;2023-03-20T00:59:20;99161.69;;;7.95;52.71
44697;BME280;57264;47.480;19.354;2023-03-20T01:04:38;99167.13;;;7.94;52.63
44697;BME280;57264;47.480;19.354;2023-03-20T01:07:06;99156.31;;;8.04;52.55
44697;BME280;57264;47.480;19.354;2023-03-20T01:09:32;99157.75;;;8.06;52.51
44697;BME280;57264;47.480;19.354;2023-03-20T01:11:59;99161.88;;;8.22;52.64
44697;BME280;57264;47.480;19.354;2023-03-20T01:14:25;99162.22;;;8.19;52.94
44697;BME280;57264;47.480;19.354;2023-03-20T01:16:51;99161.81;;;8.15;52.66
44697;BME280;57264;47.480;19.354;2023-03-20T01:19:17;99158.59;;;8.13;52.32
44697;BME280;57264;47.480;19.354;2023-03-20T01:21:42;99172.63;;;8.06;52.37
44697;BME280;57264;47.480;19.354;2023-03-20T01:24:08;99169.63;;;7.81;53.88
44697;BME280;57264;47.480;19.354;2023-03-20T01:26:39;99166.91;;;7.68;53.77
44697;BME280;57264;47.480;19.354;2023-03-20T01:29:21;99167.72;;;7.68;54.81
44697;BME280;57264;47.480;19.354;2023-03-20T01:31:48;99170.19;;;7.55;54.84
44697;BME280;57264;47.480;19.354;2023-03-20T01:34:14;99169.38;;;7.54;54.36
44697;BME280;57264;47.480;19.354;2023-03-20T01:36:50;99163.81;;;7.58;54.36
44697;BME280;57264;47.480;19.354;2023-03-20T01:39:18;99160.25;;;7.65;53.83
44697;BME280;57264;47.480;19.354;2023-03-20T01:41:46;99158.63;;;7.64;53.31
44697;BME280;57264;47.480;19.354;2023-03-20T01:44:31;99164.91;;;7.70;53.57
44697;BME280;57264;47.480;19.354;2023-03-20T01:46:58;99158.50;;;7.72;53.54
44697;BME280;57264;47.480;19.354;2023-03-20T01:51:52;99159.28;;;7.66;53.50
44697;BME280;57264;47.480;19.354;2023-03-20T01:54:24;99169.50;;;7.68;52.96
44697;BME280;57264;47.480;19.354;2023-03-20T01:57:19;99156.03;;;7.64;53.32
44697;BME280;57264;47.480;19.354;2023-03-20T02:02:36;99153.22;;;7.66;53.17
44697;BME280;57264;47.480;19.354;2023-03-20T02:05:07;99151.44;;;7.66;53.68
44697;BME280;57264;47.480;19.354;2023-03-20T02:07:34;99147.00;;;7.67;53.78
44697;BME280;57264;47.480;19.354;2023-03-20T02:10:02;99148.94;;;7.58;53.49
44697;BME280;57264;47.480;19.354;2023-03-20T02:12:30;99137.88;;;7.56;53.74
44697;BME280;57264;47.480;19.354;2023-03-20T02:14:55;99141.72;;;7.60;54.19
44697;BME280;57264;47.480;19.354;2023-03-20T02:17:22;99135.88;;;7.58;53.98
44697;BME280;57264;47.480;19.354;2023-03-20T02:29:11;99138.59;;;7.71;54.07
44697;BME280;57264;47.480;19.354;2023-03-20T02:31:35;99142.00;;;7.72;54.10
44697;BME280;57264;47.480;19.354;2023-03-20T02:46:12;99119.31;;;7.72;53.71
44697;BME280;57264;47.480;19.354;2023-03-20T02:49:02;99130.56;;;7.73;53.64
44697;BME280;57264;47.480;19.354;2023-03-20T02:51:40;99122.72;;;7.73;53.53
44697;BME280;57264;47.480;19.354;2023-03-20T02:54:32;99123.28;;;7.68;53.29
44697;BME280;57264;47.480;19.354;2023-03-20T02:57:06;99126.84;;;7.61;53.84
44697;BME280;57264;47.480;19.354;2023-03-20T03:02:37;99117.16;;;7.54;54.09
44697;BME280;57264;47.480;19.354;2023-03-20T03:05:13;99112.72;;;7.55;54.14
44697;BME280;57264;47.480;19.354;2023-03-20T03:07:43;99113.50;;;7.49;54.13
44697;BME280;57264;47.480;19.354;2023-03-20T03:10:19;99115.69;;;7.45;54.27
44697;BME280;57264;47.480;19.354;2023-03-20T03:12:48;99112.66;;;7.42;54.03
44697;BME280;57264;47.480;19.354;2023-03-20T03:15:20;99108.28;;;7.28;54.46
44697;BME280;57264;47.480;19.354;2023-03-20T03:17:49;99106.53;;;7.35;54.63
44697;BME280;57264;47.480;19.354;2023-03-20T03:20:22;99115.19;;;7.35;54.01
44697;BME280;57264;47.480;19.354;2023-03-20T03:22:49;99114.81;;;7.38;54.11
44697;BME280;57264;47.480;19.354;2023-03-20T03:25:15;99116.81;;;7.36;54.51
44697;BME280;57264;47.480;19.354;2023-03-20T03:27:46;99127.00;;;7.31;54.79
44697;BME280;57264;47.480;19.354;2023-03-20T03:30:17;99128.00;;;7.30;54.01
44697;BME280;57264;47.480;19.354;2023-03-20T03:33:00;99127.81;;;7.32;54.31
44697;BME280;57264;47.480;19.354;2023-03-20T03:35:30;99129.19;;;7.28;54.90
44697;BME280;57264;47.480;19.354;2023-03-20T03:38:00;99137.56;;;7.23;54.82
44697;BME280;57264;47.480;19.354;2023-03-20T03:43:32;99132.41;;;7.09;54.03
44697;BME280;57264;47.480;19.354;2023-03-20T03:46:13;99130.28;;;6.97;54.95
44697;BME280;57264;47.480;19.354;2023-03-20T03:48:49;99137.22;;;6.90;54.62
44697;BME280;57264;47.480;19.354;2023-03-20T03:51:20;99134.72;;;6.82;54.54
44697;BME280;57264;47.480;19.354;2023-03-20T03:53:53;99135.66;;;6.75;55.56
44697;BME280;57264;47.480;19.354;2023-03-20T03:56:22;99138.19;;;6.68;55.14
44697;BME280;57264;47.480;19.354;2023-03-20T03:58:57;99138.34;;;6.67;55.30
44697;BME280;57264;47.480;19.354;2023-03-20T04:01:25;99137.19;;;6.69;55.10
44697;BME280;57264;47.480;19.354;2023-03-20T04:03:55;99142.41;;;6.69;55.37
44697;BME280;57264;47.480;19.354;2023-03-20T04:06:23;99136.41;;;6.54;55.17
44697;BME280;57264;47.480;19.354;2023-03-20T04:08:50;99132.19;;;6.53;55.57
44697;BME280;57264;47.480;19.354;2023-03-20T04:11:18;99132.28;;;6.45;55.49
44697;BME280;57264;47.480;19.354;2023-03-20T04:13:46;99135.28;;;6.42;56.18
44697;BME280;57264;47.480;19.354;2023-03-20T04:16:13;99139.22;;;6.38;56.03
44697;BME280;57264;47.480;19.354;2023-03-20T04:18:40;99137.97;;;6.34;56.22
44697;BME280;57264;47.480;19.354;2023-03-20T04:21:06;99147.66;;;6.40;56.12
44697;BME280;57264;47.480;19.354;2023-03-20T04:23:32;99148.53;;;6.47;55.66
44697;BME280;57264;47.480;19.354;2023-03-20T04:25:58;99144.44;;;6.38;56.38
44697;BME280;57264;47.480;19.354;2023-03-20T04:28:23;99152.00;;;6.33;56.33
44697;BME280;57264;47.480;19.354;2023-03-20T04:30:53;99151.63;;;6.36;55.64
44697;BME280;57264;47.480;19.354;2023-03-20T04:33:19;99143.72;;;6.29;55.92
44697;BME280;57264;47.480;19.354;2023-03-20T04:35:44;99144.25;;;6.25;56.18
44697;BME280;57264;47.480;19.354;2023-03-20T04:38:10;99140.03;;;6.24;56.30
44697;BME280;57264;47.480;19.354;2023-03-20T04:40:36;99146.59;;;6.20;56.56
44697;BME280;57264;47.480;19.354;2023-03-20T04:43:01;99150.91;;;6.13;56.84
44697;BME280;57264;47.480;19.354;2023-03-20T04:45:27;99154.84;;;6.08;57.20
44697;BME280;57264;47.480;19.354;2023-03-20T04:47:52;99152.63;;;6.05;56.83
44697;BME280;57264;47.480;19.354;2023-03-20T04:50:18;99158.06;;;6.10;57.53
44697;BME280;57264;47.480;19.354;2023-03-20T04:52:43;99158.81;;;6.04;57.54
44697;BME280;57264;47.480;19.354;2023-03-20T04:55:09;99164.81;;;6.05;57.42
44697;BME280;57264;47.480;19.354;2023-03-20T04:57:35;99163.66;;;6.07;57.04
44697;BME280;57264;47.480;19.354;2023-03-20T05:00:00;99160.69;;;6.10;57.21
44697;BME280;57264;47.480;19.354;2023-03-20T05:02:26;99158.81;;;6.04;57.79
44697;BME280;57264;47.480;19.354;2023-03-20T05:04:51;99169.66;;;5.93;57.93
44697;BME280;57264;47.480;19.354;2023-03-20T05:07:17;99161.91;;;5.85;58.68
44697;BME280;57264;47.480;19.354;2023-03-20T05:09:42;99163.69;;;5.85;58.57
44697;BME280;57264;47.480;19.354;2023-03-20T05:12:09;99162.53;;;5.87;58.27
44697;BME280;57264;47.480;19.354;2023-03-20T05:14:35;99167.88;;;5.86;58.04
44697;BME280;57264;47.480;19.354;2023-03-20T05:17:00;99166.16;;;5.78;58.93
44697;BME280;57264;47.480;19.354;2023-03-20T05:19:26;99169.03;;;5.91;58.31
44697;BME280;57264;47.480;19.354;2023-03-20T05:21:52;99173.78;;;5.88;58.26
44697;BME280;57264;47.480;19.354;2023-03-20T05:24:17;99176.66;;;5.93;57.72
44697;BME280;57264;47.480;19.354;2023-03-20T05:26:43;99182.94;;;5.98;57.79
44697;BME280;57264;47.480;19.354;2023-03-20T05:29:09;99183.31;;;6.10;57.34
44697;BME280;57264;47.480;19.354;2023-03-20T05:31:34;99176.69;;;6.07;57.23
44697;BME280;57264;47.480;19.354;2023-03-20T05:34:00;99176.97;;;6.13;56.79
44697;BME280;57264;47.480;19.354;2023-03-20T05:36:26;99182.47;;;6.18;56.64
44697;BME280;57264;47.480;19.354;2023-03-20T05:38:51;99170.50;;;6.08;57.72
44697;BME280;57264;47.480;19.354;2023-03-20T05:41:17;99181.72;;;6.09;57.37
44697;BME280;57264;47.480;19.354;2023-03-20T05:43:43;99176.97;;;6.13;57.86
44697;BME280;57264;47.480;19.354;2023-03-20T05:46:08;99178.13;;;6.25;57.19
44697;BME280;57264;47.480;19.354;2023-03-20T05:48:34;99184.41;;;6.30;56.18
44697;BME280;57264;47.480;19.354;2023-03-20T05:51:01;99170.97;;;6.41;55.74
44697;BME280;57264;47.480;19.354;2023-03-20T05:53:26;99173.28;;;6.51;56.08
44697;BME280;57264;47.480;19.354;2023-03-20T05:55:52;99182.06;;;6.50;55.63
44697;BME280;57264;47.480;19.354;2023-03-20T05:58:17;99177.13;;;6.55;55.49
44697;BME280;57264;47.480;19.354;2023-03-20T06:00:43;99184.88;;;6.63;55.50
44697;BME280;57264;47.480;19.354;2023-03-20T06:03:09;99173.78;;;6.76;54.87
44697;BME280;57264;47.480;19.354;2023-03-20T06:05:35;99177.81;;;6.78;54.34
44697;BME280;57264;47.480;19.354;2023-03-20T06:08:01;99182.81;;;6.94;54.23
44697;BME280;57264;47.480;19.354;2023-03-20T06:10:27;99180.75;;;7.04;53.77
44697;BME280;57264;47.480;19.354;2023-03-20T06:12:55;99182.25;;;7.14;52.77
44697;BME280;57264;47.480;19.354;2023-03-20T06:15:21;99184.28;;;7.18;53.16
44697;BME280;57264;47.480;19.354;2023-03-20T06:17:47;99188.72;;;7.39;52.17
44697;BME280;57264;47.480;19.354;2023-03-20T06:20:12;99197.78;;;7.58;52.68
44697;BME280;57264;47.480;19.354;2023-03-20T06:22:38;99200.38;;;7.58;52.03
44697;BME280;57264;47.480;19.354;2023-03-20T06:25:05;99203.94;;;7.50;52.61
44697;BME280;57264;47.480;19.354;2023-03-20T06:27:31;99198.88;;;7.70;52.52
44697;BME280;57264;47.480;19.354;2023-03-20T06:29:56;99207.19;;;7.80;51.50
44697;BME280;57264;47.480;19.354;2023-03-20T06:32:37;99209.16;;;7.99;51.49
44697;BME280;57264;47.480;19.354;2023-03-20T06:35:03;99209.09;;;8.14;51.32
44697;BME280;57264;47.480;19.354;2023-03-20T06:37:30;99201.28;;;8.20;50.33
44697;BME280;57264;47.480;19.354;2023-03-20T06:39:56;99192.94;;;8.31;50.45
44697;BME280;57264;47.480;19.354;2023-03-20T06:42:21;99188.03;;;8.22;49.96
44697;BME280;57264;47.480;19.354;2023-03-20T06:44:47;99192.13;;;8.31;50.44
44697;BME280;57264;47.480;19.354;2023-03-20T06:47:12;99190.22;;;8.46;49.48
44697;BME280;57264;47.480;19.354;2023-03-20T06:49:38;99193.94;;;8.65;49.09
44697;BME280;57264;47.480;19.354;2023-03-20T06:52:04;99187.78;;;8.85;48.70
44697;BME280;57264;47.480;19.354;2023-03-20T06:54:30;99195.94;;;9.10;47.65
44697;BME280;57264;47.480;19.354;2023-03-20T06:56:56;99194.19;;;9.30;46.55
44697;BME280;57264;47.480;19.354;2023-03-20T06:59:21;99196.00;;;9.56;47.86
44697;BME280;57264;47.480;19.354;2023-03-20T07:01:48;99195.03;;;9.83;46.55
44697;BME280;57264;47.480;19.354;2023-03-20T07:04:13;99194.84;;;9.98;46.01
44697;BME280;57264;47.480;19.354;2023-03-20T07:06:39;99198.66;;;9.96;46.43
44697;BME280;57264;47.480;19.354;2023-03-20T07:09:04;99205.94;;;10.07;45.66
44697;BME280;57264;47.480;19.354;2023-03-20T07:11:30;99211.59;;;10.17;46.19
44697;BME280;57264;47.480;19.354;2023-03-20T07:13:56;99210.34;;;10.32;45.01
44697;BME280;57264;47.480;19.354;2023-03-20T07:16:24;99212.75;;;10.47;45.06
44697;BME280;57264;47.480;19.354;2023-03-20T07:18:50;99223.06;;;10.42;44.67
44697;BME280;57264;47.480;19.354;2023-03-20T07:21:18;99208.63;;;10.77;44.71
44697;BME280;57264;47.480;19.354;2023-03-20T07:23:44;99217.00;;;10.55;43.73
44697;BME280;57264;47.480;19.354;2023-03-20T07:26:10;99224.63;;;10.69;43.79
44697;BME280;57264;47.480;19.354;2023-03-20T07:28:36;99218.31;;;10.84;42.80
44697;BME280;57264;47.480;19.354;2023-03-20T07:31:02;99225.63;;;10.75;44.03
44697;BME280;57264;47.480;19.354;2023-03-20T07:33:27;99218.16;;;11.16;41.46
44697;BME280;57264;47.480;19.354;2023-03-20T07:35:53;99213.72;;;11.17;42.22
44697;BME280;57264;47.480;19.354;2023-03-20T07:38:20;99207.44;;;11.56;41.98
44697;BME280;57264;47.480;19.354;2023-03-20T07:40:46;99204.06;;;11.80;41.92
44697;BME280;57264;47.480;19.354;2023-03-20T07:43:14;99205.69;;;12.06;41.47
44697;BME280;57264;47.480;19.354;2023-03-20T07:45:40;99215.84;;;11.71;40.85
44697;BME280;57264;47.480;19.354;2023-03-20T07:48:06;99216.63;;;11.78;41.02
44697;BME280;57264;47.480;19.354;2023-03-20T07:50:31;99218.19;;;11.86;41.07
44697;BME280;57264;47.480;19.354;2023-03-20T07:52:57;99214.69;;;11.92;40.90
44697;BME280;57264;47.480;19.354;2023-03-20T07:55:23;99208.81;;;12.39;41.05
44697;BME280;57264;47.480;19.354;2023-03-20T07:57:48;99214.38;;;12.06;40.77
44697;BME280;57264;47.480;19.354;2023-03-20T08:00:17;99224.63;;;11.90;40.86
44697;BME280;57264;47.480;19.354;2023-03-20T08:02:43;99221.09;;;12.27;40.92
44697;BME280;57264;47.480;19.354;2023-03-20T08:05:09;99218.94;;;12.79;40.55
44697;BME280;57264;47.480;19.354;2023-03-20T08:07:35;99221.97;;;12.39;39.90
44697;BME280;57264;47.480;19.354;2023-03-20T08:10:04;99225.50;;;12.51;39.19
44697;BME280;57264;47.480;19.354;2023-03-20T08:12:35;99223.44;;;12.53;40.07
44697;BME280;57264;47.480;19.354;2023-03-20T08:15:01;99228.56;;;12.85;39.96
44697;BME280;57264;47.480;19.354;2023-03-20T08:17:26;99228.75;;;12.72;39.07
44697;BME280;57264;47.480;19.354;2023-03-20T08:19:52;99232.38;;;13.07;39.45
44697;BME280;57264;47.480;19.354;2023-03-20T08:22:17;99228.28;;;12.93;38.58
44697;BME280;57264;47.480;19.354;2023-03-20T08:24:43;99230.44;;;13.32;38.49
44697;BME280;57264;47.480;19.354;2023-03-20T08:27:08;99229.72;;;13.25;37.68
44697;BME280;57264;47.480;19.354;2023-03-20T08:29:34;99238.03;;;13.10;38.37
44697;BME280;57264;47.480;19.354;2023-03-20T08:32:00;99230.25;;;13.75;38.14
44697;BME280;57264;47.480;19.354;2023-03-20T08:34:25;99240.50;;;13.83;36.75
44697;BME280;57264;47.480;19.354;2023-03-20T08:36:51;99238.47;;;13.55;36.67
44697;BME280;57264;47.480;19.354;2023-03-20T08:39:17;99236.03;;;13.84;36.74
44697;BME280;57264;47.480;19.354;2023-03-20T08:41:43;99244.88;;;14.01;36.30
44697;BME280;57264;47.480;19.354;2023-03-20T08:44:11;99230.25;;;14.40;35.27
44697;BME280;57264;47.480;19.354;2023-03-20T08:46:37;99232.25;;;14.96;35.68
44697;BME280;57264;47.480;19.354;2023-03-20T08:49:04;99236.06;;;14.77;35.36
44697;BME280;57264;47.480;19.354;2023-03-20T08:51:29;99227.06;;;14.89;34.89
44697;BME280;57264;47.480;19.354;2023-03-20T08:53:55;99232.31;;;15.41;34.89
44697;BME280;57264;47.480;19.354;2023-03-20T08:56:21;99234.19;;;15.40;33.66
44697;BME280;57264;47.480;19.354;2023-03-20T08:58:46;99234.34;;;15.22;34.78
44697;BME280;57264;47.480;19.354;2023-03-20T09:01:12;99230.00;;;15.16;33.69
44697;BME280;57264;47.480;19.354;2023-03-20T09:03:39;99239.22;;;15.42;34.22
44697;BME280;57264;47.480;19.354;2023-03-20T09:06:07;99234.16;;;15.00;33.82
44697;BME280;57264;47.480;19.354;2023-03-20T09:08:33;99230.72;;;15.40;34.29
44697;BME280;57264;47.480;19.354;2023-03-20T09:10:58;99236.34;;;15.43;33.77
44697;BME280;57264;47.480;19.354;2023-03-20T09:13:24;99230.19;;;15.83;33.56
44697;BME280;57264;47.480;19.354;2023-03-20T09:15:51;99240.75;;;15.26;34.07
44697;BME280;57264;47.480;19.354;2023-03-20T09:18:18;99243.13;;;15.39;33.92
44697;BME280;57264;47.480;19.354;2023-03-20T09:20:45;99238.78;;;15.33;33.96
44697;BME280;57264;47.480;19.354;2023-03-20T09:23:11;99238.69;;;15.57;34.28
44697;BME280;57264;47.480;19.354;2023-03-20T09:25:36;99242.31;;;15.51;33.47
44697;BME280;57264;47.480;19.354;2023-03-20T09:28:02;99239.88;;;15.77;34.23
44697;BME280;57264;47.480;19.354;2023-03-20T09:30:28;99244.53;;;15.30;34.10
44697;BME280;57264;47.480;19.354;2023-03-20T09:32:53;99240.13;;;16.09;33.78
44697;BME280;57264;47.480;19.354;2023-03-20T09:35:19;99236.50;;;15.82;33.41
44697;BME280;57264;47.480;19.354;2023-03-20T09:37:45;99238.09;;;16.50;32.76
44697;BME280;57264;47.480;19.354;2023-03-20T09:40:52;99242.94;;;16.53;31.49
44697;BME280;57264;47.480;19.354;2023-03-20T09:52:51;99232.81;;;16.33;33.14
44697;BME280;57264;47.480;19.354;2023-03-20T09:55:21;99230.72;;;16.52;32.42
44697;BME280;57264;47.480;19.354;2023-03-20T09:58:42;99220.91;;;16.52;32.69
44697;BME280;57264;47.480;19.354;2023-03-20T10:00:49;99227.06;;;16.03;32.53
44697;BME280;57264;47.480;19.354;2023-03-20T10:03:30;99225.94;;;16.32;32.76
44697;BME280;57264;47.480;19.354;2023-03-20T10:06:03;99221.16;;;16.51;32.76
44697;BME280;57264;47.480;19.354;2023-03-20T10:08:35;99228.97;;;16.41;33.19
44697;BME280;57264;47.480;19.354;2023-03-20T10:16:46;99230.31;;;16.81;32.40
44697;BME280;57264;47.480;19.354;2023-03-20T10:25:02;99227.31;;;16.73;31.65
44697;BME280;57264;47.480;19.354;2023-03-20T10:28:00;99223.06;;;16.94;32.30
44697;BME280;57264;47.480;19.354;2023-03-20T10:33:39;99229.34;;;17.09;32.47
44697;BME280;57264;47.480;19.354;2023-03-20T10:41:42;99221.88;;;17.06;31.99
44697;BME280;57264;47.480;19.354;2023-03-20T10:44:14;99226.81;;;17.19;31.82
44697;BME280;57264;47.480;19.354;2023-03-20T10:46:47;99221.50;;;17.19;33.29
44697;BME280;57264;47.480;19.354;2023-03-20T10:49:28;99220.16;;;17.65;32.51
44697;BME280;57264;47.480;19.354;2023-03-20T10:51:59;99218.56;;;17.43;32.52
44697;BME280;57264;47.480;19.354;2023-03-20T10:54:30;99219.47;;;17.53;32.30
44697;BME280;57264;47.480;19.354;2023-03-20T10:56:59;99224.03;;;17.09;31.53
44697;BME280;57264;47.480;19.354;2023-03-20T10:59:34;99215.97;;;17.48;32.23
44697;BME280;57264;47.480;19.354;2023-03-20T11:02:08;99219.56;;;17.85;31.22
44697;BME280;57264;47.480;19.354;2023-03-20T11:04:35;99205.00;;;17.93;31.87
44697;BME280;57264;47.480;19.354;2023-03-20T11:07:23;99206.41;;;17.73;30.93
44697;BME280;57264;47.480;19.354;2023-03-20T11:10:10;99193.16;;;18.05;31.45
44697;BME280;57264;47.480;19.354;2023-03-20T11:12:40;99192.59;;;17.71;32.47
44697;BME280;57264;47.480;19.354;2023-03-20T11:17:53;99192.66;;;18.13;31.43
44697;BME280;57264;47.480;19.354;2023-03-20T11:20:20;99193.53;;;17.87;31.82
44697;BME280;57264;47.480;19.354;2023-03-20T11:22:47;99184.66;;;18.08;30.96
44697;BME280;57264;47.480;19.354;2023-03-20T11:25:37;99184.34;;;18.00;32.99
44697;BME280;57264;47.480;19.354;2023-03-20T11:30:49;99179.78;;;17.95;31.76
44697;BME280;57264;47.480;19.354;2023-03-20T11:33:21;99189.06;;;17.93;32.32
44697;BME280;57264;47.480;19.354;2023-03-20T11:35:52;99176.94;;;18.07;30.76
44697;BME280;57264;47.480;19.354;2023-03-20T11:38:20;99178.69;;;18.28;31.17
44697;BME280;57264;47.480;19.354;2023-03-20T11:40:47;99179.53;;;17.97;31.13
44697;BME280;57264;47.480;19.354;2023-03-20T11:43:18;99177.69;;;17.97;31.29
44697;BME280;57264;47.480;19.354;2023-03-20T11:45:47;99171.81;;;17.95;31.98
44697;BME280;57264;47.480;19.354;2023-03-20T11:48:22;99174.50;;;18.00;31.60
44697;BME280;57264;47.480;19.354;2023-03-20T11:51:14;99180.44;;;18.17;31.06
44697;BME280;57264;47.480;19.354;2023-03-20T11:54:01;99166.28;;;18.02;31.93
44697;BME280;57264;47.480;19.354;2023-03-20T11:56:33;99170.47;;;17.93;32.13
44697;BME280;57264;47.480;19.354;2023-03-20T11:59:14;99173.25;;;17.76;32.18
44697;BME280;57264;47.480;19.354;2023-03-20T12:01:48;99170.66;;;17.81;32.41
44697;BME280;57264;47.480;19.354;2023-03-20T12:04:20;99180.69;;;16.99;32.79
44697;BME280;57264;47.480;19.354;2023-03-20T12:09:42;99174.97;;;16.85;32.77
44697;BME280;57264;47.480;19.354;2023-03-20T12:23:30;99158.22;;;17.28;33.30
44697;BME280;57264;47.480;19.354;2023-03-20T12:28:55;99158.25;;;17.33;32.80
44697;BME280;57264;47.480;19.354;2023-03-20T12:31:45;99151.13;;;17.39;33.68
44697;BME280;57264;47.480;19.354;2023-03-20T12:36:46;99148.44;;;17.07;33.00
44697;BME280;57264;47.480;19.354;2023-03-20T12:39:21;99148.84;;;17.20;33.20
44697;BME280;57264;47.480;19.354;2023-03-20T12:44:56;99142.91;;;17.08;33.16
44697;BME280;57264;47.480;19.354;2023-03-20T13:10:34;99123.09;;;17.48;32.28
44697;BME280;57264;47.480;19.354;2023-03-20T13:13:26;99117.69;;;17.64;32.46
44697;BME280;57264;47.480;19.354;2023-03-20T13:19:13;99117.66;;;17.33;33.08
44697;BME280;57264;47.480;19.354;2023-03-20T13:21:55;99118.56;;;17.16;32.56
44697;BME280;57264;47.480;19.354;2023-03-20T13:27:25;99107.22;;;17.53;32.92
44697;BME280;57264;47.480;19.354;2023-03-20T13:35:53;99096.03;;;17.51;33.57
44697;BME280;57264;47.480;19.354;2023-03-20T13:38:44;99094.47;;;17.55;33.09
44697;BME280;57264;47.480;19.354;2023-03-20T13:41:12;99100.53;;;17.50;32.90
44697;BME280;57264;47.480;19.354;2023-03-20T13:43:42;99096.03;;;17.51;33.23
44697;BME280;57264;47.480;19.354;2023-03-20T13:46:23;99099.16;;;17.43;33.59
44697;BME280;57264;47.480;19.354;2023-03-20T13:48:50;99096.97;;;17.35;33.38
44697;BME280;57264;47.480;19.354;2023-03-20T13:56:53;99097.47;;;17.00;34.47
44697;BME280;57264;47.480;19.354;2023-03-20T14:04:59;99090.28;;;16.73;34.17
44697;BME280;57264;47.480;19.354;2023-03-20T14:09:52;99095.53;;;16.68;34.69
44697;BME280;57264;47.480;19.354;2023-03-20T14:12:24;99095.78;;;16.67;34.82
44697;BME280;57264;47.480;19.354;2023-03-20T14:14:58;99095.75;;;16.89;34.57
44697;BME280;57264;47.480;19.354;2023-03-20T14:17:26;99096.00;;;16.87;35.46
44697;BME280;57264;47.480;19.354;2023-03-20T14:19:54;99089.53;;;16.78;34.68
44697;BME280;57264;47.480;19.354;2023-03-20T14:22:27;99095.91;;;16.77;34.92
44697;BME280;57264;47.480;19.354;2023-03-20T14:25:07;99091.56;;;16.71;34.81
44697;BME280;57264;47.480;19.354;2023-03-20T14:30:36;99095.28;;;16.48;36.32
44697;BME280;57264;47.480;19.354;2023-03-20T14:35:48;99094.31;;;16.37;36.33
44697;BME280;57264;47.480;19.354;2023-03-20T14:40:56;99091.56;;;16.27;37.34
44697;BME280;57264;47.480;19.354;2023-03-20T14:57:46;99091.00;;;16.25;37.79
44697;BME280;57264;47.480;19.354;2023-03-20T15:00:20;99089.38;;;16.03;38.10
44697;BME280;57264;47.480;19.354;2023-03-20T15:02:52;99089.06;;;15.99;38.37
44697;BME280;57264;47.480;19.354;2023-03-20T15:05:27;99093.56;;;15.82;38.59
44697;BME280;57264;47.480;19.354;2023-03-20T15:08:06;99091.25;;;15.85;38.29
44697;BME280;57264;47.480;19.354;2023-03-20T15:10:44;99092.84;;;15.86;38.53
44697;BME280;57264;47.480;19.354;2023-03-20T15:13:12;99082.56;;;15.90;38.76
44697;BME280;57264;47.480;19.354;2023-03-20T15:15:51;99094.69;;;15.86;38.70
44697;BME280;57264;47.480;19.354;2023-03-20T15:18:20;99083.72;;;15.77;39.24
44697;BME280;57264;47.480;19.354;2023-03-20T15:20:45;99085.56;;;15.77;40.08
44697;BME280;57264;47.480;19.354;2023-03-20T15:23:12;99078.72;;;15.81;39.21
44697;BME280;57264;47.480;19.354;2023-03-20T15:25:40;99080.66;;;15.69;39.70
44697;BME280;57264;47.480;19.354;2023-03-20T15:28:13;99075.47;;;15.57;39.80
44697;BME280;57264;47.480;19.354;2023-03-20T15:30:39;99083.41;;;15.40;40.99
44697;BME280;57264;47.480;19.354;2023-03-20T15:33:09;99082.72;;;15.17;40.55
44697;BME280;57264;47.480;19.354;2023-03-20T15:35:38;99085.09;;;15.02;41.71
44697;BME280;57264;47.480;19.354;2023-03-20T15:38:05;99078.75;;;14.86;42.06
44697;BME280;57264;47.480;19.354;2023-03-20T15:40:33;99075.94;;;14.76;42.70
44697;BME280;57264;47.480;19.354;2023-03-20T15:43:19;99081.81;;;14.66;43.00
44697;BME280;57264;47.480;19.354;2023-03-20T15:45:45;99087.31;;;14.65;43.56
44697;BME280;57264;47.480;19.354;2023-03-20T15:48:19;99087.00;;;14.61;43.33
44697;BME280;57264;47.480;19.354;2023-03-20T15:50:48;99087.94;;;14.55;43.07
44697;BME280;57264;47.480;19.354;2023-03-20T15:53:20;99082.66;;;14.55;43.71
44697;BME280;57264;47.480;19.354;2023-03-20T15:55:50;99087.28;;;14.48;44.45
44697;BME280;57264;47.480;19.354;2023-03-20T15:58:17;99090.97;;;14.47;44.80
44697;BME280;57264;47.480;19.354;2023-03-20T16:00:48;99081.19;;;14.47;44.32